createdAt,value
2023-05-15T00:00:49.665Z,52.82
2023-05-15T00:03:21.406Z,52.87
2023-05-15T00:05:52.945Z,52.90
2023-05-15T00:08:24.481Z,52.93
2023-05-15T00:11:01.432Z,53.04
2023-05-15T00:13:33.319Z,53.14
2023-05-15T00:16:04.486Z,52.97
2023-05-15T00:18:35.714Z,53.05
2023-05-15T00:21:07.591Z,53.20
2023-05-15T00:23:38.904Z,53.30
2023-05-15T00:26:10.137Z,53.29
2023-05-15T00:28:41.253Z,53.31
2023-05-15T00:31:14.839Z,53.15
2023-05-15T00:33:46.791Z,53.15
2023-05-15T00:36:18.559Z,53.04
2023-05-15T00:38:49.660Z,53.10
2023-05-15T00:41:21.953Z,53.05
2023-05-15T00:43:54.334Z,52.84
2023-05-15T00:46:27.393Z,53.06
2023-05-15T00:48:59.326Z,53.02
2023-05-15T00:51:31.009Z,52.96
2023-05-15T00:54:03.483Z,53.01
2023-05-15T00:56:35.745Z,53.11
2023-05-15T00:59:07.635Z,53.10
2023-05-15T01:01:39.016Z,53.18
2023-05-15T01:04:11.636Z,53.32
2023-05-15T01:06:43.195Z,53.25
2023-05-15T01:09:16.809Z,53.37
2023-05-15T01:11:51.598Z,53.41
2023-05-15T01:14:22.980Z,53.63
2023-05-15T01:16:54.064Z,53.65
2023-05-15T01:19:25.265Z,53.78
2023-05-15T01:22:20.858Z,53.74
2023-05-15T01:25:17.572Z,53.82
2023-05-15T01:27:52.104Z,53.86
2023-05-15T01:30:28.517Z,53.87
2023-05-15T01:33:07.847Z,53.97
2023-05-15T01:35:50.458Z,53.97
2023-05-15T01:38:38.191Z,53.95
2023-05-15T01:41:17.077Z,54.05
2023-05-15T01:43:55.706Z,54.28
2023-05-15T01:46:31.049Z,54.14
2023-05-15T01:49:05.041Z,54.22
2023-05-15T01:51:39.369Z,54.28
2023-05-15T01:54:13.083Z,54.20
2023-05-15T01:56:46.225Z,54.08
2023-05-15T01:59:19.284Z,54.17
2023-05-15T02:01:51.895Z,53.96
2023-05-15T02:04:24.070Z,54.01
2023-05-15T02:06:57.624Z,53.95
2023-05-15T02:09:29.508Z,53.92
2023-05-15T02:12:01.369Z,53.93
2023-05-15T02:14:33.625Z,53.84
2023-05-15T02:17:05.201Z,53.80
2023-05-15T02:19:38.047Z,53.78
2023-05-15T02:22:09.954Z,53.74
2023-05-15T02:24:41.458Z,53.71
2023-05-15T02:27:22.126Z,53.79
2023-05-15T02:30:12.091Z,53.88
2023-05-15T02:32:51.893Z,53.73
2023-05-15T02:35:28.936Z,53.86
2023-05-15T02:38:07.157Z,53.73
2023-05-15T02:40:41.134Z,53.72
2023-05-15T02:43:14.381Z,53.62
2023-05-15T02:45:47.880Z,53.74
2023-05-15T02:48:19.768Z,53.54
2023-05-15T02:50:51.094Z,53.70
2023-05-15T02:53:23.147Z,53.69
2023-05-15T02:55:54.166Z,53.70
2023-05-15T02:58:25.716Z,53.81
2023-05-15T03:00:56.804Z,53.79
2023-05-15T03:03:28.477Z,53.73
2023-05-15T03:06:01.165Z,53.69
2023-05-15T03:08:32.836Z,53.65
2023-05-15T03:11:04.292Z,53.69
2023-05-15T03:13:35.834Z,53.62
2023-05-15T03:16:07.723Z,53.69
2023-05-15T03:18:38.769Z,53.71
2023-05-15T03:21:10.372Z,53.91
2023-05-15T03:23:42.063Z,53.87
2023-05-15T03:26:13.298Z,53.85
2023-05-15T03:28:44.443Z,53.96
2023-05-15T03:31:15.669Z,53.96
2023-05-15T03:33:50.052Z,53.94
2023-05-15T03:36:23.083Z,53.95
2023-05-15T03:38:53.980Z,54.03
2023-05-15T03:41:26.151Z,54.11
2023-05-15T03:43:57.443Z,54.17
2023-05-15T03:46:28.440Z,54.40
2023-05-15T03:48:59.762Z,54.20
2023-05-15T03:51:30.972Z,54.33
2023-05-15T03:54:05.338Z,54.34
2023-05-15T03:56:36.626Z,54.49
2023-05-15T03:59:07.883Z,54.48
2023-05-15T04:01:51.029Z,54.48
2023-05-15T04:04:29.931Z,54.32
2023-05-15T04:07:01.563Z,54.33
2023-05-15T04:09:32.813Z,54.36
2023-05-15T04:12:04.296Z,54.49
2023-05-15T04:14:35.723Z,54.31
2023-05-15T04:17:07.316Z,54.22
2023-05-15T04:19:39.876Z,54.33
2023-05-15T04:22:11.937Z,54.32
2023-05-15T04:24:43.269Z,54.62
2023-05-15T04:27:14.616Z,54.80
2023-05-15T04:29:45.903Z,54.93
2023-05-15T04:32:17.043Z,54.42
2023-05-15T04:34:48.785Z,54.24
2023-05-15T04:37:20.418Z,54.02
2023-05-15T04:39:51.678Z,53.81
2023-05-15T04:42:23.044Z,53.62
2023-05-15T04:44:54.491Z,53.43
2023-05-15T04:47:26.278Z,53.30
2023-05-15T04:49:57.468Z,53.16
2023-05-15T04:52:28.740Z,53.00
2023-05-15T04:55:00.047Z,52.81
2023-05-15T04:57:31.673Z,52.81
2023-05-15T05:00:03.066Z,52.65
2023-05-15T05:02:34.107Z,52.62
2023-05-15T05:05:06.370Z,52.54
2023-05-15T05:07:38.079Z,52.50
2023-05-15T05:10:11.113Z,52.48
2023-05-15T05:12:42.369Z,52.43
2023-05-15T05:15:15.050Z,52.46
2023-05-15T05:17:46.433Z,52.33
2023-05-15T05:20:18.005Z,52.26
2023-05-15T05:22:49.401Z,52.37
2023-05-15T05:25:21.193Z,51.99
2023-05-15T05:27:52.514Z,51.99
2023-05-15T05:30:24.425Z,51.81
2023-05-15T05:32:55.879Z,51.67
2023-05-15T05:35:27.891Z,51.61
2023-05-15T05:37:59.092Z,51.48
2023-05-15T05:40:30.158Z,51.28
2023-05-15T05:43:03.502Z,51.23
2023-05-15T05:45:34.776Z,51.34
2023-05-15T05:48:06.512Z,51.34
2023-05-15T05:50:37.905Z,51.32
2023-05-15T05:53:09.151Z,51.44
2023-05-15T05:55:40.252Z,51.26
2023-05-15T05:58:21.730Z,51.27
2023-05-15T06:00:56.100Z,51.47
2023-05-15T06:03:27.788Z,51.74
2023-05-15T06:05:59.100Z,52.41
2023-05-15T06:08:31.880Z,52.28
2023-05-15T06:11:03.501Z,52.75
2023-05-15T06:13:34.959Z,52.90
2023-05-15T06:16:07.330Z,53.19
2023-05-15T06:18:38.742Z,53.26
2023-05-15T06:21:10.461Z,53.54
2023-05-15T06:23:41.522Z,53.63
2023-05-15T06:26:13.242Z,53.74
2023-05-15T06:28:44.916Z,53.74
2023-05-15T06:31:17.624Z,53.80
2023-05-15T06:33:49.584Z,53.83
2023-05-15T06:36:21.017Z,53.89
2023-05-15T06:38:52.171Z,53.85
2023-05-15T06:41:23.981Z,53.97
2023-05-15T06:43:55.313Z,54.06
2023-05-15T06:46:26.615Z,54.31
2023-05-15T06:48:58.071Z,54.28
2023-05-15T06:51:29.410Z,54.20
2023-05-15T06:54:01.566Z,54.05
2023-05-15T06:56:32.731Z,54.18
2023-05-15T06:59:04.151Z,54.31
2023-05-15T07:01:35.747Z,54.26
2023-05-15T07:04:07.361Z,54.29
2023-05-15T07:06:39.522Z,54.34
2023-05-15T07:09:11.345Z,54.42
2023-05-15T07:11:42.524Z,54.42
2023-05-15T07:14:13.452Z,54.64
2023-05-15T07:16:45.338Z,54.86
2023-05-15T07:19:19.136Z,54.89
2023-05-15T07:21:50.799Z,54.89
2023-05-15T07:24:22.054Z,55.32
2023-05-15T07:26:58.740Z,55.40
2023-05-15T07:29:30.680Z,55.22
2023-05-15T07:32:01.938Z,55.05
2023-05-15T07:34:33.161Z,55.25
2023-05-15T07:37:04.414Z,55.24
2023-05-15T07:39:35.562Z,55.39
2023-05-15T07:42:07.897Z,55.34
2023-05-15T07:44:39.327Z,55.68
2023-05-15T07:47:10.668Z,55.71
2023-05-15T07:49:41.861Z,55.66
2023-05-15T07:52:12.747Z,55.78
2023-05-15T07:54:44.488Z,55.82
2023-05-15T07:57:16.402Z,55.88
2023-05-15T07:59:47.856Z,55.94
2023-05-15T08:02:20.132Z,55.84
2023-05-15T08:04:51.691Z,55.76
2023-05-15T08:07:22.792Z,55.90
2023-05-15T08:09:54.415Z,55.89
2023-05-15T08:12:25.949Z,55.90
2023-05-15T08:14:57.754Z,55.89
2023-05-15T08:17:29.448Z,55.93
2023-05-15T08:20:00.816Z,55.80
2023-05-15T08:22:32.370Z,55.89
2023-05-15T08:25:05.814Z,55.86
2023-05-15T08:27:37.166Z,55.87
2023-05-15T08:30:10.792Z,55.91
2023-05-15T08:32:42.106Z,55.97
2023-05-15T08:35:13.349Z,56.01
2023-05-15T08:37:44.745Z,55.91
2023-05-15T08:40:17.013Z,56.00
2023-05-15T08:42:55.429Z,56.12
2023-05-15T08:45:27.424Z,56.20
2023-05-15T08:48:01.883Z,56.23
2023-05-15T08:50:33.845Z,56.28
2023-05-15T08:53:05.842Z,56.48
2023-05-15T08:55:37.545Z,56.45
2023-05-15T08:58:09.271Z,56.77
2023-05-15T09:00:40.656Z,56.64
2023-05-15T09:03:19.972Z,56.81
2023-05-15T09:05:53.453Z,56.69
2023-05-15T09:08:26.211Z,56.45
2023-05-15T09:10:59.708Z,56.59
2023-05-15T09:13:30.960Z,56.63
2023-05-15T09:16:01.960Z,56.58
2023-05-15T09:18:33.922Z,56.64
2023-05-15T09:21:26.035Z,56.57
2023-05-15T09:24:17.327Z,56.25
2023-05-15T09:26:49.764Z,56.24
2023-05-15T09:29:20.842Z,56.30
2023-05-15T09:31:52.866Z,56.07
2023-05-15T09:34:31.988Z,56.12
2023-05-15T09:37:04.596Z,56.16
2023-05-15T09:39:36.569Z,56.05
2023-05-15T09:42:13.894Z,56.04
2023-05-15T09:44:46.311Z,56.16
2023-05-15T09:47:17.758Z,55.98
2023-05-15T09:49:50.325Z,55.90
2023-05-15T09:52:23.433Z,56.00
2023-05-15T09:54:56.072Z,55.70
2023-05-15T09:57:27.890Z,55.67
2023-05-15T10:00:05.281Z,55.32
2023-05-15T10:02:43.899Z,55.04
2023-05-15T10:05:14.947Z,55.01
2023-05-15T10:07:46.191Z,55.17
2023-05-15T10:10:18.045Z,55.04
2023-05-15T10:12:50.476Z,54.72
2023-05-15T10:15:22.672Z,54.68
2023-05-15T10:17:55.083Z,54.56
2023-05-15T10:20:27.705Z,54.47
2023-05-15T10:22:59.749Z,54.16
2023-05-15T10:25:39.628Z,54.12
2023-05-15T10:28:13.276Z,53.92
2023-05-15T10:30:45.293Z,54.06
2023-05-15T10:33:17.307Z,54.06
2023-05-15T10:35:51.644Z,53.74
2023-05-15T10:38:24.297Z,53.73
2023-05-15T10:41:05.590Z,53.82
2023-05-15T10:43:48.271Z,53.53
2023-05-15T10:46:19.455Z,53.37
2023-05-15T10:48:50.724Z,53.19
2023-05-15T10:51:28.158Z,53.16
2023-05-15T10:54:01.281Z,52.92
2023-05-15T10:56:34.722Z,52.91
2023-05-15T10:59:10.388Z,52.94
2023-05-15T11:01:42.580Z,52.95
2023-05-15T11:04:15.729Z,53.02
2023-05-15T11:06:48.712Z,53.18
2023-05-15T11:09:39.709Z,53.01
2023-05-15T11:12:13.086Z,52.85
2023-05-15T11:14:45.841Z,52.96
2023-05-15T11:17:17.824Z,52.85
2023-05-15T11:20:02.995Z,52.52
2023-05-15T11:22:36.955Z,52.29
2023-05-15T11:25:12.185Z,52.50
2023-05-15T11:27:45.538Z,52.25
2023-05-15T11:30:20.782Z,52.20
2023-05-15T11:32:58.594Z,51.84
2023-05-15T11:35:33.884Z,51.62
2023-05-15T11:38:14.060Z,51.52
2023-05-15T11:40:50.404Z,51.36
2023-05-15T11:43:23.207Z,51.07
2023-05-15T11:45:58.162Z,50.87
2023-05-15T11:48:34.666Z,51.19
2023-05-15T11:51:07.132Z,51.47
2023-05-15T11:53:39.780Z,51.25
2023-05-15T11:56:18.513Z,50.75
2023-05-15T11:58:51.343Z,50.95
2023-05-15T12:01:22.461Z,51.00
2023-05-15T12:03:55.206Z,51.11
2023-05-15T12:06:27.628Z,51.18
2023-05-15T12:08:58.759Z,51.15
2023-05-15T12:11:30.016Z,51.16
2023-05-15T12:14:01.246Z,50.85
2023-05-15T12:16:33.093Z,51.36
2023-05-15T12:19:04.878Z,51.47
2023-05-15T12:21:43.291Z,51.33
2023-05-15T12:24:15.640Z,51.48
2023-05-15T12:26:47.215Z,51.76
2023-05-15T12:29:18.834Z,51.85
2023-05-15T12:31:54.129Z,51.96
2023-05-15T12:34:26.170Z,51.91
2023-05-15T12:37:00.320Z,51.94
2023-05-15T12:39:32.038Z,52.04
2023-05-15T12:42:04.771Z,51.83
2023-05-15T12:44:36.354Z,51.99
2023-05-15T12:47:08.757Z,52.05
2023-05-15T12:49:41.802Z,52.12
2023-05-15T12:52:16.151Z,52.35
2023-05-15T12:54:48.139Z,52.36
2023-05-15T12:57:19.939Z,52.51
2023-05-15T12:59:52.029Z,52.66
2023-05-15T13:02:23.798Z,52.33
2023-05-15T13:04:55.204Z,52.13
2023-05-15T13:07:26.737Z,52.29
2023-05-15T13:10:08.479Z,52.75
2023-05-15T13:12:43.835Z,52.77
2023-05-15T13:15:29.657Z,52.79
2023-05-15T13:18:04.515Z,53.13
2023-05-15T13:20:38.751Z,53.26
2023-05-15T13:23:11.312Z,53.61
2023-05-15T13:25:42.421Z,54.10
2023-05-15T13:28:14.449Z,54.51
2023-05-15T13:30:45.883Z,54.69
2023-05-15T13:33:17.349Z,54.71
2023-05-15T13:35:48.527Z,54.79
2023-05-15T13:38:19.794Z,55.01
2023-05-15T13:40:50.852Z,54.66
2023-05-15T13:43:23.951Z,54.72
2023-05-15T13:45:56.390Z,54.92
2023-05-15T13:48:28.182Z,55.20
2023-05-15T13:50:59.323Z,55.36
2023-05-15T13:53:30.771Z,55.29
2023-05-15T13:56:02.155Z,55.40
2023-05-15T13:58:33.333Z,55.25
2023-05-15T14:01:07.441Z,55.21
2023-05-15T14:03:38.915Z,55.16
2023-05-15T14:06:12.514Z,54.94
2023-05-15T14:08:43.481Z,54.88
2023-05-15T14:11:14.787Z,55.36
2023-05-15T14:13:47.082Z,55.67
2023-05-15T14:16:18.687Z,55.83
2023-05-15T14:18:50.043Z,56.07
2023-05-15T14:21:21.941Z,56.55
2023-05-15T14:23:53.566Z,56.96
2023-05-15T14:26:24.633Z,56.97
2023-05-15T14:28:55.818Z,57.29
2023-05-15T14:31:27.656Z,57.19
2023-05-15T14:33:59.121Z,57.18
2023-05-15T14:36:30.854Z,57.28
2023-05-15T14:39:02.124Z,57.32
2023-05-15T14:41:33.748Z,57.25
2023-05-15T14:44:05.595Z,57.62
2023-05-15T14:46:38.275Z,57.64
2023-05-15T14:49:09.872Z,57.76
2023-05-15T14:51:41.559Z,57.86
2023-05-15T14:54:13.302Z,57.91
2023-05-15T14:56:44.859Z,58.14
2023-05-15T14:59:16.456Z,57.86
2023-05-15T15:01:47.755Z,58.80
2023-05-15T15:04:19.173Z,58.82
2023-05-15T15:06:51.349Z,59.56
2023-05-15T15:09:22.683Z,59.79
2023-05-15T15:11:53.796Z,60.31
2023-05-15T15:14:25.110Z,60.28
2023-05-15T15:16:56.731Z,60.46
2023-05-15T15:19:28.041Z,60.65
2023-05-15T15:21:59.407Z,60.04
2023-05-15T15:24:30.969Z,59.99
2023-05-15T15:27:02.413Z,59.78
2023-05-15T15:29:33.630Z,59.50
2023-05-15T15:32:05.618Z,59.27
2023-05-15T15:34:36.871Z,58.79
2023-05-15T15:37:08.753Z,58.51
2023-05-15T15:39:39.754Z,58.33
2023-05-15T15:42:11.478Z,58.27
2023-05-15T15:44:43.025Z,58.38
2023-05-15T15:47:14.510Z,58.14
2023-05-15T15:49:45.899Z,57.44
2023-05-15T15:52:17.326Z,56.94
2023-05-15T15:54:48.676Z,57.14
2023-05-15T15:57:20.713Z,57.37
2023-05-15T15:59:51.924Z,57.39
2023-05-15T16:02:23.146Z,57.13
2023-05-15T16:04:54.381Z,55.94
2023-05-15T16:07:25.531Z,55.41
2023-05-15T16:10:10.915Z,55.32
2023-05-15T16:12:45.651Z,54.85
2023-05-15T16:15:23.042Z,54.51
2023-05-15T16:17:55.386Z,54.40
2023-05-15T16:20:27.015Z,54.93
2023-05-15T16:22:58.728Z,54.96
2023-05-15T16:25:29.840Z,54.79
2023-05-15T16:28:01.084Z,54.37
2023-05-15T16:30:47.460Z,53.92
2023-05-15T16:33:20.984Z,53.92
2023-05-15T16:35:53.620Z,53.53
2023-05-15T16:38:25.455Z,53.09
2023-05-15T16:40:56.515Z,53.23
2023-05-15T16:43:28.059Z,53.15
2023-05-15T16:45:59.512Z,53.05
2023-05-15T16:48:30.917Z,52.74
2023-05-15T16:51:01.836Z,52.91
2023-05-15T16:53:33.224Z,52.89
2023-05-15T16:56:04.789Z,53.06
2023-05-15T16:58:36.042Z,53.08
2023-05-15T17:01:07.391Z,52.99
2023-05-15T17:03:38.743Z,52.99
2023-05-15T17:06:10.625Z,52.98
2023-05-15T17:08:42.912Z,52.87
2023-05-15T17:11:14.611Z,52.86
2023-05-15T17:13:48.215Z,52.77
2023-05-15T17:16:19.730Z,52.70
2023-05-15T17:18:51.699Z,52.81
2023-05-15T17:21:22.926Z,52.28
2023-05-15T17:23:56.321Z,52.11
2023-05-15T17:26:27.381Z,52.07
2023-05-15T17:28:58.633Z,52.27
2023-05-15T17:31:30.265Z,52.82
2023-05-15T17:34:01.605Z,53.07
2023-05-15T17:36:33.818Z,53.13
2023-05-15T17:39:05.205Z,53.12
2023-05-15T17:41:36.298Z,53.19
2023-05-15T17:44:08.032Z,53.25
2023-05-15T17:46:39.351Z,53.17
2023-05-15T17:49:10.553Z,53.09
2023-05-15T17:51:41.871Z,52.87
2023-05-15T17:54:13.509Z,52.71
2023-05-15T17:56:44.797Z,52.55
2023-05-15T17:59:15.811Z,52.54
2023-05-15T18:01:47.520Z,52.36
2023-05-15T18:04:18.837Z,52.12
2023-05-15T18:06:49.740Z,51.89
2023-05-15T18:09:23.962Z,51.92
2023-05-15T18:11:56.001Z,51.79
2023-05-15T18:14:27.462Z,51.94
2023-05-15T18:16:59.124Z,52.04
2023-05-15T18:19:30.500Z,52.13
2023-05-15T18:22:03.286Z,52.12
2023-05-15T18:24:34.938Z,52.05
2023-05-15T18:27:06.361Z,52.12
2023-05-15T18:29:37.589Z,51.99
2023-05-15T18:32:09.354Z,51.81
2023-05-15T18:34:40.824Z,51.88
2023-05-15T18:37:12.281Z,51.95
2023-05-15T18:39:44.533Z,51.99
2023-05-15T18:42:17.213Z,52.07
2023-05-15T18:44:48.355Z,52.23
2023-05-15T18:47:19.828Z,52.29
2023-05-15T18:49:51.351Z,51.99
2023-05-15T18:52:22.825Z,51.85
2023-05-15T18:54:54.304Z,51.59
2023-05-15T18:57:26.336Z,51.38
2023-05-15T19:00:00.483Z,51.09
2023-05-15T19:02:32.869Z,50.31
2023-05-15T19:05:04.071Z,49.50
2023-05-15T19:07:35.443Z,48.96
2023-05-15T19:10:09.622Z,48.39
2023-05-15T19:12:40.714Z,47.96
2023-05-15T19:15:14.444Z,47.66
2023-05-15T19:17:45.949Z,47.19
2023-05-15T19:20:17.405Z,46.42
2023-05-15T19:22:48.836Z,46.19
2023-05-15T19:25:20.421Z,45.43
2023-05-15T19:27:51.554Z,44.88
2023-05-15T19:30:23.146Z,44.81
2023-05-15T19:32:54.270Z,44.66
2023-05-15T19:35:25.859Z,44.64
2023-05-15T19:37:56.989Z,44.85
2023-05-15T19:40:28.246Z,44.30
2023-05-15T19:42:59.982Z,44.30
2023-05-15T19:45:31.257Z,43.73
2023-05-15T19:48:02.644Z,43.66
2023-05-15T19:50:33.950Z,43.58
2023-05-15T19:53:06.002Z,43.37
2023-05-15T19:55:37.318Z,43.20
2023-05-15T19:58:08.618Z,42.88
2023-05-15T20:00:39.889Z,42.49
2023-05-15T20:03:11.359Z,42.38
2023-05-15T20:05:43.221Z,42.64
2023-05-15T20:08:15.020Z,42.58
2023-05-15T20:10:51.497Z,42.37
2023-05-15T20:13:22.575Z,42.43
2023-05-15T20:15:59.063Z,42.39
2023-05-15T20:18:34.459Z,42.26
2023-05-15T20:21:06.681Z,42.72
2023-05-15T20:23:37.904Z,42.75
2023-05-15T20:26:09.208Z,42.43
2023-05-15T20:28:40.831Z,42.13
2023-05-15T20:31:12.575Z,42.36
2023-05-15T20:33:44.351Z,42.08
2023-05-15T20:36:16.844Z,42.05
2023-05-15T20:38:50.266Z,41.88
2023-05-15T20:41:23.358Z,41.94
2023-05-15T20:43:54.796Z,41.72
2023-05-15T20:46:30.031Z,42.06
2023-05-15T20:49:01.618Z,42.10
2023-05-15T20:51:41.954Z,41.75
2023-05-15T20:54:13.551Z,41.83
2023-05-15T20:56:44.940Z,41.52
2023-05-15T20:59:16.192Z,41.59
2023-05-15T21:01:47.715Z,41.50
2023-05-15T21:04:19.125Z,40.98
2023-05-15T21:06:50.948Z,40.98
2023-05-15T21:09:24.688Z,40.86
2023-05-15T21:11:56.193Z,40.38
2023-05-15T21:14:27.550Z,40.54
2023-05-15T21:16:58.673Z,40.29
2023-05-15T21:19:29.866Z,40.63
2023-05-15T21:22:00.957Z,40.26
2023-05-15T21:24:32.212Z,40.01
2023-05-15T21:27:03.839Z,40.09
2023-05-15T21:29:35.249Z,40.20
2023-05-15T21:32:07.035Z,40.05
2023-05-15T21:34:38.381Z,39.45
2023-05-15T21:37:09.791Z,39.32
2023-05-15T21:39:41.642Z,38.92
2023-05-15T21:42:13.198Z,38.75
2023-05-15T21:44:44.509Z,38.72
2023-05-15T21:47:16.160Z,38.88
2023-05-15T21:49:47.225Z,38.99
2023-05-15T21:52:18.739Z,38.69
2023-05-15T21:54:50.109Z,38.34
2023-05-15T21:57:21.769Z,38.03
2023-05-15T21:59:53.146Z,38.04
2023-05-15T22:02:24.192Z,37.93
2023-05-15T22:04:55.326Z,37.56
2023-05-15T22:07:26.474Z,37.34
2023-05-15T22:09:57.905Z,37.29
2023-05-15T22:12:28.956Z,37.50
2023-05-15T22:15:00.386Z,37.44
2023-05-15T22:17:32.055Z,37.46
2023-05-15T22:20:08.202Z,37.57
2023-05-15T22:22:41.084Z,37.30
2023-05-15T22:25:13.121Z,37.08
2023-05-15T22:27:44.466Z,37.32
2023-05-15T22:30:16.805Z,37.25
2023-05-15T22:32:48.130Z,37.23
2023-05-15T22:35:20.434Z,37.18
2023-05-15T22:37:51.428Z,37.25
2023-05-15T22:40:22.510Z,37.11
2023-05-15T22:42:53.821Z,37.38
2023-05-15T22:45:25.233Z,37.46
2023-05-15T22:47:56.518Z,37.38
2023-05-15T22:50:28.137Z,37.34
2023-05-15T22:52:59.430Z,37.37
2023-05-15T22:55:30.794Z,37.51
2023-05-15T22:58:02.155Z,37.64
2023-05-15T23:00:33.836Z,37.71
2023-05-15T23:03:05.371Z,37.78
2023-05-15T23:05:36.882Z,37.71
2023-05-15T23:08:08.364Z,37.97
2023-05-15T23:10:40.187Z,38.10
2023-05-15T23:13:11.723Z,38.31
2023-05-15T23:15:44.396Z,38.33
2023-05-15T23:18:17.178Z,38.48
2023-05-15T23:20:48.361Z,38.40
2023-05-15T23:23:20.620Z,38.78
2023-05-15T23:25:51.967Z,38.68
2023-05-15T23:28:23.077Z,38.62
2023-05-15T23:30:56.596Z,38.68
2023-05-15T23:33:28.013Z,38.76
2023-05-15T23:35:59.424Z,38.87
2023-05-15T23:38:30.924Z,39.04
2023-05-15T23:41:02.105Z,39.16
2023-05-15T23:43:33.043Z,39.21
2023-05-15T23:46:04.533Z,39.08
2023-05-15T23:48:36.145Z,39.10
2023-05-15T23:51:07.581Z,39.05
2023-05-15T23:53:38.784Z,39.12
2023-05-15T23:56:10.831Z,39.10
2023-05-15T23:58:42.655Z,39.34
